createdAt,value
2022-11-25T00:00:23.370Z,4.87
2022-11-25T00:01:45.080Z,6.46
2022-11-25T00:03:06.797Z,5.88
2022-11-25T00:04:28.185Z,5.57
2022-11-25T00:05:49.590Z,6.68
2022-11-25T00:07:11.243Z,5.96
2022-11-25T00:08:32.693Z,5.48
2022-11-25T00:09:53.830Z,5.63
2022-11-25T00:11:15.933Z,5.57
2022-11-25T00:12:37.118Z,5.61
2022-11-25T00:13:58.908Z,6.05
2022-11-25T00:15:20.553Z,5.22
2022-11-25T00:16:47.726Z,4.72
2022-11-25T00:18:05.487Z,4.82
2022-11-25T00:19:27.077Z,5.02
2022-11-25T00:20:48.718Z,5.04
2022-11-25T00:22:10.024Z,5.33
2022-11-25T00:23:33.358Z,4.91
2022-11-25T00:26:16.039Z,4.98
2022-11-25T00:27:37.497Z,4.98
2022-11-25T00:29:00.234Z,4.72
2022-11-25T00:30:21.517Z,4.69
2022-11-25T00:31:42.998Z,4.57
2022-11-25T00:33:04.571Z,4.45
2022-11-25T00:34:25.911Z,3.83
2022-11-25T00:35:47.024Z,3.34
2022-11-25T00:37:08.522Z,3.52
2022-11-25T00:38:30.316Z,3.59
2022-11-25T00:39:51.700Z,3.92
2022-11-25T00:41:13.058Z,3.52
2022-11-25T00:42:34.198Z,3.78
2022-11-25T00:43:55.910Z,3.98
2022-11-25T00:45:17.532Z,3.81
2022-11-25T00:46:38.598Z,3.63
2022-11-25T00:47:59.751Z,3.62
2022-11-25T00:49:21.326Z,3.98
2022-11-25T00:50:42.636Z,4.27
2022-11-25T00:52:04.150Z,4.45
2022-11-25T00:53:25.697Z,4.28
2022-11-25T00:54:47.168Z,4.12
2022-11-25T00:56:08.466Z,4.44
2022-11-25T00:57:29.721Z,4.76
2022-11-25T00:58:52.012Z,4.77
2022-11-25T01:00:14.238Z,4.42
2022-11-25T01:01:35.729Z,4.49
2022-11-25T01:02:57.311Z,4.88
2022-11-25T01:04:18.351Z,4.69
2022-11-25T01:05:39.457Z,4.42
2022-11-25T01:07:01.054Z,4.94
2022-11-25T01:08:22.764Z,4.37
2022-11-25T01:09:44.441Z,4.23
2022-11-25T01:11:12.708Z,4.22
2022-11-25T01:12:34.129Z,3.78
2022-11-25T01:14:00.693Z,3.52
2022-11-25T01:15:18.115Z,3.76
2022-11-25T01:16:39.680Z,4.25
2022-11-25T01:18:01.156Z,3.95
2022-11-25T01:19:23.149Z,3.34
2022-11-25T01:20:44.767Z,3.64
2022-11-25T01:22:07.248Z,3.62
2022-11-25T01:23:28.363Z,3.78
2022-11-25T01:24:49.528Z,4.19
2022-11-25T01:26:12.024Z,3.87
2022-11-25T01:27:33.044Z,4.83
2022-11-25T01:28:59.488Z,5.11
2022-11-25T01:30:21.215Z,4.81
2022-11-25T01:31:42.580Z,4.63
2022-11-25T01:33:03.746Z,5.56
2022-11-25T01:34:26.062Z,5.59
2022-11-25T01:35:47.168Z,5.31
2022-11-25T01:37:08.075Z,4.44
2022-11-25T01:38:29.473Z,5.20
2022-11-25T01:39:50.785Z,5.78
2022-11-25T01:41:13.306Z,5.59
2022-11-25T01:42:34.249Z,5.82
2022-11-25T01:45:28.795Z,6.96
2022-11-25T01:46:56.168Z,6.78
2022-11-25T01:48:32.846Z,6.49
2022-11-25T01:51:16.831Z,6.77
2022-11-25T01:52:39.952Z,6.55
2022-11-25T01:55:29.353Z,5.89
2022-11-25T01:56:54.339Z,6.17
2022-11-25T01:58:16.873Z,5.64
2022-11-25T01:59:41.512Z,5.94
2022-11-25T02:01:02.713Z,5.37
2022-11-25T02:02:24.091Z,6.13
2022-11-25T02:03:46.908Z,6.66
2022-11-25T02:05:08.971Z,6.33
2022-11-25T02:06:35.571Z,6.19
2022-11-25T02:07:56.951Z,5.99
2022-11-25T02:09:18.570Z,5.95
2022-11-25T02:10:39.927Z,6.39
2022-11-25T02:12:01.207Z,6.23
2022-11-25T02:13:23.001Z,6.24
2022-11-25T02:14:44.797Z,6.35
2022-11-25T02:16:05.882Z,6.47
2022-11-25T02:17:27.008Z,6.76
2022-11-25T02:18:49.170Z,6.56
2022-11-25T02:21:29.254Z,7.27
2022-11-25T02:23:03.458Z,6.38
2022-11-25T02:24:28.611Z,7.01
2022-11-25T02:25:49.863Z,6.27
2022-11-25T02:27:11.089Z,6.88
2022-11-25T02:28:32.618Z,7.17
2022-11-25T02:29:54.226Z,6.56
2022-11-25T02:31:19.758Z,6.54
2022-11-25T02:32:44.815Z,6.38
2022-11-25T02:34:05.797Z,6.06
2022-11-25T02:35:32.758Z,5.97
2022-11-25T02:36:53.700Z,5.82
2022-11-25T02:38:18.176Z,5.72
2022-11-25T02:39:39.748Z,5.78
2022-11-25T02:41:07.530Z,5.22
2022-11-25T02:42:28.608Z,5.57
2022-11-25T02:43:49.990Z,5.61
2022-11-25T02:45:11.501Z,5.49
2022-11-25T02:46:33.074Z,6.01
2022-11-25T02:47:54.240Z,5.63
2022-11-25T02:49:15.210Z,6.13
2022-11-25T02:50:36.511Z,6.48
2022-11-25T02:51:57.737Z,6.28
2022-11-25T02:53:19.262Z,6.54
2022-11-25T02:54:40.732Z,6.75
2022-11-25T02:56:02.134Z,6.34
2022-11-25T02:57:23.031Z,6.90
2022-11-25T02:58:44.308Z,5.84
2022-11-25T03:00:06.659Z,6.03
2022-11-25T03:01:28.096Z,6.70
2022-11-25T03:02:51.516Z,7.19
2022-11-25T03:05:33.279Z,6.48
2022-11-25T03:06:54.762Z,6.42
2022-11-25T03:08:16.311Z,6.92
2022-11-25T03:09:37.334Z,7.30
2022-11-25T03:10:58.887Z,7.18
2022-11-25T03:12:20.110Z,6.69
2022-11-25T03:13:41.118Z,7.02
2022-11-25T03:15:03.494Z,6.66
2022-11-25T03:16:24.903Z,6.60
2022-11-25T03:17:46.476Z,6.46
2022-11-25T03:19:07.985Z,6.54
2022-11-25T03:20:29.380Z,6.43
2022-11-25T03:21:50.891Z,6.45
2022-11-25T03:23:12.569Z,6.67
2022-11-25T03:24:34.352Z,6.90
2022-11-25T03:25:55.972Z,6.51
2022-11-25T03:27:17.462Z,7.37
2022-11-25T03:28:38.991Z,6.66
2022-11-25T03:30:00.611Z,6.61
2022-11-25T03:31:22.210Z,6.19
2022-11-25T03:32:43.704Z,6.24
2022-11-25T03:34:05.239Z,6.38
2022-11-25T03:35:26.798Z,6.45
2022-11-25T03:36:48.412Z,6.06
2022-11-25T03:38:09.524Z,6.41
2022-11-25T03:39:31.166Z,6.49
2022-11-25T03:40:52.265Z,5.92
2022-11-25T03:42:13.668Z,6.10
2022-11-25T03:43:35.052Z,6.29
2022-11-25T03:44:56.554Z,6.51
2022-11-25T03:46:18.181Z,6.88
2022-11-25T03:48:53.855Z,6.59
2022-11-25T03:50:15.450Z,6.57
2022-11-25T03:51:36.483Z,6.71
2022-11-25T03:52:57.535Z,6.44
2022-11-25T03:54:19.116Z,7.02
2022-11-25T03:55:40.813Z,6.88
2022-11-25T03:57:02.154Z,6.48
2022-11-25T03:58:23.498Z,6.31
2022-11-25T03:59:44.967Z,6.51
2022-11-25T04:01:06.743Z,6.91
2022-11-25T04:02:28.404Z,6.37
2022-11-25T04:03:49.851Z,6.26
2022-11-25T04:05:11.359Z,6.10
2022-11-25T04:06:33.122Z,6.32
2022-11-25T04:07:57.946Z,6.17
2022-11-25T04:10:39.216Z,6.01
2022-11-25T04:12:00.336Z,5.99
2022-11-25T04:13:21.959Z,6.57
2022-11-25T04:14:43.427Z,6.74
2022-11-25T04:16:04.723Z,6.29
2022-11-25T04:17:26.124Z,6.98
2022-11-25T04:18:47.725Z,7.09
2022-11-25T04:20:10.075Z,6.24
2022-11-25T04:21:31.390Z,6.64
2022-11-25T04:22:52.460Z,6.78
2022-11-25T04:24:13.612Z,6.36
2022-11-25T04:25:35.851Z,7.26
2022-11-25T04:26:57.440Z,6.11
2022-11-25T04:28:18.512Z,6.64
2022-11-25T04:29:40.076Z,7.04
2022-11-25T04:31:06.941Z,6.42
2022-11-25T04:32:28.500Z,6.73
2022-11-25T04:33:52.675Z,6.39
2022-11-25T04:35:13.096Z,6.22
2022-11-25T04:36:34.794Z,6.28
2022-11-25T04:37:55.975Z,6.42
2022-11-25T04:39:17.312Z,6.25
2022-11-25T04:40:38.586Z,6.53
2022-11-25T04:42:00.026Z,6.72
2022-11-25T04:43:21.650Z,6.22
2022-11-25T04:44:55.902Z,5.39
2022-11-25T04:46:13.856Z,6.06
2022-11-25T04:47:29.988Z,5.58
2022-11-25T04:48:51.083Z,5.81
2022-11-25T04:51:25.203Z,5.72
2022-11-25T04:52:46.419Z,5.16
2022-11-25T04:54:07.918Z,5.63
2022-11-25T04:55:29.371Z,5.04
2022-11-25T04:56:51.122Z,5.27
2022-11-25T04:58:12.736Z,5.24
2022-11-25T04:59:34.252Z,4.98
2022-11-25T05:00:55.967Z,5.57
2022-11-25T05:02:24.654Z,5.67
2022-11-25T05:03:53.014Z,5.39
2022-11-25T05:05:11.960Z,5.11
2022-11-25T05:06:33.548Z,5.38
2022-11-25T05:07:55.807Z,5.42
2022-11-25T05:09:19.006Z,5.67
2022-11-25T05:10:40.359Z,7.51
2022-11-25T05:12:01.685Z,7.46
2022-11-25T05:13:23.418Z,5.99
2022-11-25T05:14:44.673Z,6.26
2022-11-25T05:16:06.756Z,6.74
2022-11-25T05:17:29.208Z,6.54
2022-11-25T05:18:50.497Z,5.72
2022-11-25T05:20:12.364Z,5.96
2022-11-25T05:21:34.108Z,6.21
2022-11-25T05:22:55.851Z,5.59
2022-11-25T05:24:17.722Z,5.89
2022-11-25T05:25:39.358Z,6.64
2022-11-25T05:27:00.945Z,6.30
2022-11-25T05:28:22.275Z,5.86
2022-11-25T05:29:43.665Z,5.46
2022-11-25T05:31:05.458Z,6.04
2022-11-25T05:32:26.904Z,5.89
2022-11-25T05:33:48.791Z,6.19
2022-11-25T05:35:10.140Z,5.89
2022-11-25T05:36:31.987Z,5.99
2022-11-25T05:37:53.213Z,6.18
2022-11-25T05:39:14.285Z,6.38
2022-11-25T05:40:36.070Z,6.44
2022-11-25T05:41:57.423Z,6.89
2022-11-25T05:43:18.701Z,5.92
2022-11-25T05:44:40.366Z,6.60
2022-11-25T05:46:07.681Z,6.07
2022-11-25T05:47:29.412Z,6.03
2022-11-25T05:48:54.325Z,6.72
2022-11-25T05:50:15.775Z,6.25
2022-11-25T05:51:38.120Z,5.82
2022-11-25T05:52:59.631Z,6.14
2022-11-25T05:54:21.057Z,6.48
2022-11-25T05:55:43.264Z,6.38
2022-11-25T05:57:04.633Z,6.33
2022-11-25T05:58:30.545Z,6.04
2022-11-25T05:59:52.351Z,6.43
2022-11-25T06:01:14.739Z,6.62
2022-11-25T06:02:36.730Z,6.28
2022-11-25T06:05:11.765Z,7.39
2022-11-25T06:06:33.613Z,8.77
2022-11-25T06:08:58.589Z,10.06
2022-11-25T06:10:20.797Z,9.91
2022-11-25T06:11:42.239Z,8.57
2022-11-25T06:13:03.620Z,8.23
2022-11-25T06:14:24.806Z,11.84
2022-11-25T06:15:46.681Z,10.54
2022-11-25T06:17:08.841Z,8.39
2022-11-25T06:18:31.511Z,9.65
2022-11-25T06:19:52.994Z,10.03
2022-11-25T06:21:15.396Z,7.74
2022-11-25T06:22:36.554Z,7.92
2022-11-25T06:24:00.092Z,8.05
2022-11-25T06:25:21.480Z,7.87
2022-11-25T06:26:42.785Z,8.38
2022-11-25T06:28:12.716Z,8.65
2022-11-25T06:29:27.440Z,7.88
2022-11-25T06:30:49.234Z,7.52
2022-11-25T06:32:12.098Z,8.16
2022-11-25T06:34:54.217Z,7.71
2022-11-25T06:36:15.989Z,7.89
2022-11-25T06:37:37.540Z,6.93
2022-11-25T06:38:58.889Z,7.38
2022-11-25T06:40:20.412Z,7.88
2022-11-25T06:41:41.542Z,7.55
2022-11-25T06:43:03.797Z,7.38
2022-11-25T06:44:24.896Z,7.89
2022-11-25T06:45:47.066Z,7.98
2022-11-25T06:47:08.416Z,6.71
2022-11-25T06:48:30.076Z,9.34
2022-11-25T06:49:51.503Z,9.47
2022-11-25T06:51:13.550Z,11.48
2022-11-25T06:52:34.960Z,12.96
2022-11-25T06:53:56.316Z,12.97
2022-11-25T06:55:17.939Z,13.14
2022-11-25T06:56:39.425Z,12.67
2022-11-25T06:58:20.600Z,10.74
2022-11-25T06:59:23.514Z,10.45
2022-11-25T07:00:45.606Z,10.00
2022-11-25T07:02:08.518Z,9.06
2022-11-25T07:03:29.959Z,8.45
2022-11-25T07:04:52.091Z,8.71
2022-11-25T07:06:14.731Z,8.66
2022-11-25T07:07:36.249Z,8.04
2022-11-25T07:08:57.841Z,7.28
2022-11-25T07:10:19.331Z,7.14
2022-11-25T07:11:40.666Z,7.27
2022-11-25T07:13:02.280Z,7.81
2022-11-25T07:14:23.655Z,7.92
2022-11-25T07:15:45.097Z,9.70
2022-11-25T07:17:11.823Z,9.94
2022-11-25T07:19:54.218Z,8.33
2022-11-25T07:22:28.062Z,9.84
2022-11-25T07:23:50.074Z,9.86
2022-11-25T07:25:11.984Z,9.68
2022-11-25T07:26:36.006Z,11.33
2022-11-25T07:27:57.284Z,10.21
2022-11-25T07:29:44.270Z,9.42
2022-11-25T07:31:22.148Z,9.12
2022-11-25T07:32:10.240Z,9.62
2022-11-25T07:33:28.772Z,10.63
2022-11-25T07:34:50.231Z,11.83
2022-11-25T07:36:12.511Z,12.51
2022-11-25T07:37:33.576Z,10.32
2022-11-25T07:38:55.030Z,10.66
2022-11-25T07:40:16.604Z,10.23
2022-11-25T07:41:37.896Z,9.72
2022-11-25T07:42:59.636Z,10.24
2022-11-25T07:44:21.181Z,10.11
2022-11-25T07:45:42.562Z,9.67
2022-11-25T07:47:05.947Z,10.13
2022-11-25T07:49:48.499Z,9.52
2022-11-25T07:51:18.550Z,9.75
2022-11-25T07:52:40.224Z,9.09
2022-11-25T07:54:03.248Z,9.03
2022-11-25T07:55:24.499Z,8.49
2022-11-25T07:56:45.841Z,8.18
2022-11-25T07:58:07.783Z,8.79
2022-11-25T07:59:29.145Z,10.09
2022-11-25T08:02:00.926Z,10.87
2022-11-25T08:03:22.269Z,10.78
2022-11-25T08:04:43.625Z,10.34
2022-11-25T08:07:31.883Z,11.49
2022-11-25T08:10:18.856Z,10.02
2022-11-25T08:11:40.227Z,10.24
2022-11-25T08:13:01.344Z,10.63
2022-11-25T08:14:23.089Z,9.87
2022-11-25T08:15:46.901Z,10.67
2022-11-25T08:17:08.149Z,10.78
2022-11-25T08:18:29.623Z,11.25
2022-11-25T08:19:51.099Z,10.73
2022-11-25T08:21:15.454Z,10.10
2022-11-25T08:22:37.639Z,9.83
2022-11-25T08:23:59.115Z,10.71
2022-11-25T08:25:20.725Z,11.51
2022-11-25T08:26:43.289Z,11.37
2022-11-25T08:28:04.594Z,10.55
2022-11-25T08:29:26.167Z,11.11
2022-11-25T08:30:48.578Z,11.12
2022-11-25T08:32:11.936Z,11.20
2022-11-25T08:34:53.566Z,11.36
2022-11-25T08:36:15.698Z,11.33
2022-11-25T08:37:37.276Z,10.94
2022-11-25T08:39:00.168Z,9.06
2022-11-25T08:40:21.561Z,9.63
2022-11-25T08:41:52.176Z,9.45
2022-11-25T08:43:14.655Z,9.10
2022-11-25T08:45:48.653Z,11.08
2022-11-25T08:47:18.605Z,9.71
2022-11-25T08:48:41.081Z,9.15
2022-11-25T08:50:14.595Z,9.16
2022-11-25T08:51:37.066Z,10.04
2022-11-25T08:52:58.608Z,10.32
2022-11-25T08:54:19.682Z,11.25
2022-11-25T08:55:41.413Z,11.69
2022-11-25T08:57:03.263Z,10.54
2022-11-25T08:58:32.118Z,9.81
2022-11-25T08:59:55.007Z,9.04
2022-11-25T09:01:18.228Z,9.41
2022-11-25T09:04:00.470Z,8.81
2022-11-25T09:05:22.022Z,9.22
2022-11-25T09:06:43.639Z,9.79
2022-11-25T09:08:05.509Z,10.01
2022-11-25T09:09:26.858Z,10.04
2022-11-25T09:10:48.740Z,10.32
2022-11-25T09:12:11.274Z,9.48
2022-11-25T09:13:32.515Z,9.59
2022-11-25T09:14:55.717Z,9.57
2022-11-25T09:16:17.195Z,8.87
2022-11-25T09:17:38.282Z,8.43
2022-11-25T09:18:59.925Z,7.83
2022-11-25T09:20:22.313Z,8.38
2022-11-25T09:21:43.915Z,8.74
2022-11-25T09:23:05.559Z,8.01
2022-11-25T09:24:26.914Z,8.67
2022-11-25T09:25:57.505Z,9.22
2022-11-25T09:27:24.911Z,8.93
2022-11-25T09:28:46.435Z,9.40
2022-11-25T09:30:08.527Z,9.66
2022-11-25T09:31:29.670Z,10.21
2022-11-25T09:32:52.082Z,9.56
2022-11-25T09:34:13.771Z,9.02
2022-11-25T09:35:35.947Z,8.78
2022-11-25T09:38:09.540Z,11.23
2022-11-25T09:39:30.879Z,10.17
2022-11-25T09:41:04.896Z,10.43
2022-11-25T09:42:50.351Z,9.52
2022-11-25T09:44:27.606Z,8.42
2022-11-25T09:45:58.787Z,7.62
2022-11-25T09:47:48.982Z,8.22
2022-11-25T09:49:31.417Z,8.96
2022-11-25T09:51:18.849Z,9.75
2022-11-25T09:52:58.633Z,8.96
2022-11-25T09:54:27.130Z,9.29
2022-11-25T09:55:50.437Z,10.24
2022-11-25T09:58:39.618Z,9.81
2022-11-25T10:00:05.153Z,9.75
2022-11-25T10:01:27.561Z,9.62
2022-11-25T10:03:19.652Z,10.64
2022-11-25T10:04:46.887Z,9.46
2022-11-25T10:06:37.994Z,10.17
2022-11-25T10:08:11.079Z,10.18
2022-11-25T10:09:33.525Z,10.36
2022-11-25T10:11:03.293Z,10.39
2022-11-25T10:12:27.192Z,9.87
2022-11-25T10:13:55.773Z,9.98
2022-11-25T10:15:25.717Z,11.29
2022-11-25T10:16:51.543Z,9.32
2022-11-25T10:18:22.282Z,10.47
2022-11-25T10:20:04.941Z,9.48
2022-11-25T10:21:26.897Z,7.63
2022-11-25T10:24:03.609Z,9.13
2022-11-25T10:26:47.632Z,9.61
2022-11-25T10:28:23.149Z,10.04
2022-11-25T10:30:08.036Z,9.36
2022-11-25T10:31:34.814Z,9.44
2022-11-25T10:33:22.679Z,10.14
2022-11-25T10:36:02.821Z,9.83
2022-11-25T10:37:32.501Z,10.17
2022-11-25T10:40:17.708Z,10.19
2022-11-25T10:43:01.980Z,9.64
2022-11-25T10:44:32.548Z,10.98
2022-11-25T10:46:09.890Z,11.15
2022-11-25T10:47:36.639Z,9.75
2022-11-25T10:49:08.090Z,10.55
2022-11-25T10:51:08.351Z,10.67
2022-11-25T10:52:32.076Z,9.31
2022-11-25T10:54:22.699Z,9.46
2022-11-25T10:56:04.305Z,9.68
2022-11-25T10:57:27.825Z,10.70
2022-11-25T10:58:48.842Z,9.83
2022-11-25T11:00:33.102Z,10.40
2022-11-25T11:03:28.204Z,9.22
2022-11-25T11:04:58.913Z,10.38
2022-11-25T11:08:16.090Z,10.69
2022-11-25T11:09:41.244Z,11.84
2022-11-25T11:11:11.975Z,12.41
2022-11-25T11:12:34.187Z,11.24
2022-11-25T11:15:22.128Z,11.47
2022-11-25T11:16:46.916Z,11.29
2022-11-25T11:18:25.540Z,11.22
2022-11-25T11:20:03.160Z,10.84
2022-11-25T11:22:48.421Z,11.52
2022-11-25T11:27:23.433Z,10.69
2022-11-25T11:28:45.478Z,10.02
2022-11-25T11:30:15.891Z,9.71
2022-11-25T11:31:48.524Z,11.11
2022-11-25T11:35:04.196Z,8.34
2022-11-25T11:36:35.037Z,11.22
2022-11-25T11:39:50.938Z,9.08
2022-11-25T11:43:11.957Z,12.18
2022-11-25T11:45:10.371Z,11.15
2022-11-25T11:47:07.884Z,10.52
2022-11-25T11:48:40.800Z,9.01
2022-11-25T11:50:27.375Z,9.61
2022-11-25T11:53:31.715Z,9.21
2022-11-25T11:54:53.771Z,9.43
2022-11-25T11:58:15.228Z,9.53
2022-11-25T12:01:33.928Z,9.84
2022-11-25T12:03:22.570Z,10.32
2022-11-25T12:04:47.604Z,11.58
2022-11-25T12:06:09.303Z,11.35
2022-11-25T12:07:49.813Z,11.61
2022-11-25T12:09:16.653Z,12.32
2022-11-25T12:12:14.625Z,10.98
2022-11-25T12:15:07.523Z,10.77
2022-11-25T12:16:35.762Z,10.94
2022-11-25T12:18:00.098Z,10.37
2022-11-25T12:19:38.951Z,10.13
2022-11-25T12:21:05.304Z,10.00
2022-11-25T12:22:39.195Z,10.69
2022-11-25T12:24:23.941Z,11.13
2022-11-25T12:25:47.388Z,11.16
2022-11-25T12:27:18.224Z,12.43
2022-11-25T12:30:07.075Z,9.94
2022-11-25T12:33:18.336Z,12.53
2022-11-25T12:36:20.522Z,13.78
2022-11-25T12:37:45.086Z,13.47
2022-11-25T12:41:06.150Z,11.03
2022-11-25T12:42:27.735Z,10.62
2022-11-25T12:43:51.501Z,11.63
2022-11-25T12:46:46.078Z,11.15
2022-11-25T12:49:31.306Z,10.56
2022-11-25T12:51:00.044Z,10.47
2022-11-25T12:52:41.550Z,11.58
2022-11-25T12:54:07.157Z,10.93
2022-11-25T12:55:28.403Z,10.73
2022-11-25T12:57:09.011Z,10.04
2022-11-25T13:00:40.417Z,11.18
2022-11-25T13:02:11.539Z,10.69
2022-11-25T13:04:11.138Z,12.19
2022-11-25T13:05:47.997Z,10.76
2022-11-25T13:09:13.918Z,10.58
2022-11-25T13:10:45.583Z,11.36
2022-11-25T13:12:35.919Z,11.39
2022-11-25T13:14:07.975Z,11.07
2022-11-25T13:15:31.788Z,12.12
2022-11-25T13:16:54.661Z,11.66
2022-11-25T13:18:20.993Z,11.78
2022-11-25T13:19:42.346Z,11.48
2022-11-25T13:21:16.251Z,11.31
2022-11-25T13:22:37.916Z,11.58
2022-11-25T13:23:59.257Z,11.52
2022-11-25T13:25:26.065Z,10.64
2022-11-25T13:26:47.946Z,10.81
2022-11-25T13:28:34.369Z,11.21
2022-11-25T13:29:55.530Z,10.64
2022-11-25T13:32:37.421Z,11.52
2022-11-25T13:35:46.035Z,10.99
2022-11-25T13:37:36.567Z,10.39
2022-11-25T13:38:58.582Z,10.68
2022-11-25T13:42:22.986Z,10.58
2022-11-25T13:45:38.518Z,10.50
2022-11-25T13:47:19.815Z,10.86
2022-11-25T13:48:41.533Z,12.59
2022-11-25T13:50:12.318Z,11.93
2022-11-25T13:51:36.664Z,11.46
2022-11-25T13:53:04.242Z,11.39
2022-11-25T13:54:38.796Z,10.37
2022-11-25T13:56:26.747Z,11.47
2022-11-25T13:57:50.613Z,10.64
2022-11-25T13:59:29.632Z,10.54
2022-11-25T14:01:13.874Z,10.15
2022-11-25T14:04:06.714Z,9.67
2022-11-25T14:07:07.938Z,10.91
2022-11-25T14:08:57.358Z,10.63
2022-11-25T14:10:43.712Z,10.66
2022-11-25T14:12:24.020Z,12.41
2022-11-25T14:14:07.789Z,11.22
2022-11-25T14:17:41.671Z,10.61
2022-11-25T14:19:51.141Z,10.83
2022-11-25T14:21:02.250Z,10.89
2022-11-25T14:22:30.045Z,12.03
2022-11-25T14:24:12.825Z,12.07
2022-11-25T14:25:55.503Z,10.84
2022-11-25T14:27:22.371Z,10.22
2022-11-25T14:28:50.643Z,10.77
2022-11-25T14:30:21.815Z,11.42
2022-11-25T14:33:03.038Z,11.04
2022-11-25T14:35:56.075Z,10.39
2022-11-25T14:37:20.423Z,11.01
2022-11-25T14:40:15.224Z,13.54
2022-11-25T14:41:39.003Z,11.84
2022-11-25T14:43:05.069Z,12.21
2022-11-25T14:44:35.674Z,11.18
2022-11-25T14:46:11.495Z,12.05
2022-11-25T14:47:37.428Z,10.76
2022-11-25T14:50:33.720Z,11.92
2022-11-25T14:51:36.269Z,12.08
2022-11-25T14:52:57.338Z,10.88
2022-11-25T14:54:20.212Z,12.37
2022-11-25T14:55:42.798Z,11.81
2022-11-25T14:58:15.043Z,12.21
2022-11-25T14:59:39.742Z,12.60
2022-11-25T15:01:03.202Z,11.57
2022-11-25T15:02:32.844Z,12.16
2022-11-25T15:04:15.751Z,12.57
2022-11-25T15:05:38.030Z,11.78
2022-11-25T15:06:59.372Z,12.43
2022-11-25T15:08:20.471Z,13.46
2022-11-25T15:10:56.459Z,11.86
2022-11-25T15:12:21.652Z,12.52
2022-11-25T15:13:57.929Z,12.08
2022-11-25T15:15:19.296Z,11.51
2022-11-25T15:16:41.249Z,11.92
2022-11-25T15:18:06.235Z,13.01
2022-11-25T15:20:48.487Z,12.58
2022-11-25T15:22:28.477Z,12.91
2022-11-25T15:23:36.662Z,12.11
2022-11-25T15:25:06.606Z,11.96
2022-11-25T15:26:29.808Z,11.92
2022-11-25T15:27:51.566Z,12.59
2022-11-25T15:29:13.099Z,12.59
2022-11-25T15:30:34.926Z,12.99
2022-11-25T15:31:56.664Z,12.83
2022-11-25T15:33:18.397Z,12.61
2022-11-25T15:34:41.515Z,10.74
2022-11-25T15:36:03.451Z,12.42
2022-11-25T15:37:24.748Z,12.12
2022-11-25T15:38:46.296Z,13.79
2022-11-25T15:40:31.533Z,13.23
2022-11-25T15:42:21.444Z,12.23
2022-11-25T15:45:08.747Z,12.51
2022-11-25T15:46:31.530Z,12.36
2022-11-25T15:47:52.951Z,12.12
2022-11-25T15:49:14.427Z,12.67
2022-11-25T15:50:36.011Z,13.47
2022-11-25T15:53:31.685Z,13.73
2022-11-25T15:54:50.239Z,13.81
2022-11-25T15:56:11.425Z,14.08
2022-11-25T15:57:36.055Z,13.77
2022-11-25T15:59:01.498Z,15.46
2022-11-25T16:01:34.109Z,11.78
2022-11-25T16:02:56.021Z,14.95
2022-11-25T16:04:20.698Z,15.08
2022-11-25T16:05:45.503Z,14.28
2022-11-25T16:07:10.639Z,14.87
2022-11-25T16:08:36.415Z,14.93
2022-11-25T16:09:58.083Z,16.01
2022-11-25T16:11:19.762Z,15.04
2022-11-25T16:12:41.148Z,14.89
2022-11-25T16:14:26.139Z,15.06
2022-11-25T16:15:59.153Z,14.41
2022-11-25T16:17:20.283Z,15.02
2022-11-25T16:19:03.337Z,15.42
2022-11-25T16:20:26.221Z,14.06
2022-11-25T16:23:08.451Z,14.92
2022-11-25T16:24:33.232Z,14.84
2022-11-25T16:25:59.911Z,14.49
2022-11-25T16:27:22.985Z,15.45
2022-11-25T16:28:55.157Z,16.24
2022-11-25T16:30:17.961Z,15.97
2022-11-25T16:31:40.486Z,15.42
2022-11-25T16:33:01.730Z,12.78
2022-11-25T16:34:23.312Z,15.04
2022-11-25T16:35:44.720Z,15.16
2022-11-25T16:37:06.195Z,16.38
2022-11-25T16:38:29.476Z,16.88
2022-11-25T16:39:51.088Z,16.50
2022-11-25T16:42:35.017Z,16.43
2022-11-25T16:44:00.868Z,16.36
2022-11-25T16:45:23.507Z,15.86
2022-11-25T16:46:45.042Z,16.38
2022-11-25T16:48:14.803Z,17.17
2022-11-25T16:49:36.478Z,16.43
2022-11-25T16:50:58.181Z,17.90
2022-11-25T16:52:19.674Z,16.91
2022-11-25T16:53:41.128Z,16.92
2022-11-25T16:55:02.663Z,17.27
2022-11-25T16:56:27.470Z,17.24
2022-11-25T16:57:49.746Z,17.49
2022-11-25T16:59:28.720Z,17.81
2022-11-25T17:02:19.901Z,17.27
2022-11-25T17:03:42.497Z,17.09
2022-11-25T17:06:28.889Z,15.75
2022-11-25T17:07:52.374Z,16.89
2022-11-25T17:09:13.940Z,16.20
2022-11-25T17:10:36.417Z,17.07
2022-11-25T17:11:57.793Z,16.14
2022-11-25T17:13:21.544Z,16.41
2022-11-25T17:14:43.233Z,15.86
2022-11-25T17:16:08.304Z,16.12
2022-11-25T17:17:29.901Z,15.84
2022-11-25T17:18:52.137Z,16.06
2022-11-25T17:20:17.464Z,13.56
2022-11-25T17:21:38.797Z,16.86
2022-11-25T17:23:00.368Z,16.73
2022-11-25T17:24:23.102Z,16.57
2022-11-25T17:25:49.000Z,15.58
2022-11-25T17:27:17.110Z,16.32
2022-11-25T17:28:38.367Z,15.68
2022-11-25T17:30:00.958Z,16.48
2022-11-25T17:31:25.855Z,17.06
2022-11-25T17:32:50.641Z,16.50
2022-11-25T17:35:36.971Z,15.96
2022-11-25T17:36:58.488Z,16.72
2022-11-25T17:38:20.039Z,16.77
2022-11-25T17:39:41.492Z,16.77
2022-11-25T17:41:02.901Z,17.18
2022-11-25T17:42:28.545Z,17.01
2022-11-25T17:43:50.413Z,15.37
2022-11-25T17:45:12.956Z,16.03
2022-11-25T17:46:34.056Z,16.08
2022-11-25T17:47:55.367Z,16.57
2022-11-25T17:49:16.919Z,15.77
2022-11-25T17:50:38.069Z,15.73
2022-11-25T17:51:59.216Z,15.72
2022-11-25T17:53:20.915Z,14.41
2022-11-25T17:54:43.225Z,15.49
2022-11-25T17:56:25.504Z,15.66
2022-11-25T17:57:47.952Z,14.57
2022-11-25T17:59:12.326Z,14.67
2022-11-25T18:00:33.774Z,14.95
2022-11-25T18:01:56.418Z,13.13
2022-11-25T18:03:19.710Z,13.88
2022-11-25T18:04:41.707Z,13.08
2022-11-25T18:06:03.600Z,13.75
2022-11-25T18:07:26.840Z,12.87
2022-11-25T18:08:48.337Z,12.54
2022-11-25T18:10:11.216Z,13.57
2022-11-25T18:11:32.915Z,12.49
2022-11-25T18:12:55.110Z,12.08
2022-11-25T18:14:28.600Z,13.02
2022-11-25T18:15:49.795Z,12.07
2022-11-25T18:18:24.671Z,10.65
2022-11-25T18:19:50.031Z,11.11
2022-11-25T18:21:09.847Z,10.76
2022-11-25T18:22:30.895Z,11.27
2022-11-25T18:23:53.362Z,11.55
2022-11-25T18:25:16.037Z,10.95
2022-11-25T18:26:46.415Z,14.79
2022-11-25T18:28:09.488Z,15.58
2022-11-25T18:30:52.038Z,12.01
2022-11-25T18:32:13.491Z,10.80
2022-11-25T18:33:34.952Z,10.91
2022-11-25T18:34:56.825Z,10.90
2022-11-25T18:36:18.448Z,11.69
2022-11-25T18:37:40.497Z,10.99
2022-11-25T18:39:01.881Z,11.56
2022-11-25T18:40:24.249Z,11.61
2022-11-25T18:41:45.926Z,10.65
2022-11-25T18:44:26.351Z,11.44
2022-11-25T18:45:47.936Z,10.72
2022-11-25T18:47:12.101Z,10.92
2022-11-25T18:48:33.494Z,10.14
2022-11-25T18:49:56.391Z,10.93
2022-11-25T18:52:38.940Z,10.17
2022-11-25T18:54:00.018Z,10.97
2022-11-25T18:55:22.851Z,10.96
2022-11-25T18:56:44.071Z,10.36
2022-11-25T18:59:29.479Z,12.76
2022-11-25T19:00:50.841Z,11.45
2022-11-25T19:02:14.849Z,10.88
2022-11-25T19:03:36.439Z,11.61
2022-11-25T19:04:59.126Z,11.17
2022-11-25T19:06:21.086Z,11.64
2022-11-25T19:07:44.330Z,11.17
2022-11-25T19:09:05.758Z,12.33
2022-11-25T19:10:29.062Z,12.85
2022-11-25T19:14:32.576Z,13.04
2022-11-25T19:15:55.492Z,12.48
2022-11-25T19:18:43.231Z,11.99
2022-11-25T19:20:17.396Z,12.38
2022-11-25T19:21:38.595Z,12.17
2022-11-25T19:23:04.055Z,11.76
2022-11-25T19:24:27.632Z,13.14
2022-11-25T19:25:49.475Z,11.34
2022-11-25T19:27:23.588Z,12.00
2022-11-25T19:28:46.037Z,11.84
2022-11-25T19:30:17.731Z,12.81
2022-11-25T19:31:39.163Z,12.46
2022-11-25T19:33:00.985Z,12.80
2022-11-25T19:35:41.904Z,11.92
2022-11-25T19:37:03.879Z,11.68
2022-11-25T19:38:25.672Z,12.64
2022-11-25T19:41:02.797Z,14.31
2022-11-25T19:42:26.333Z,12.27
2022-11-25T19:43:47.648Z,12.14
2022-11-25T19:45:11.610Z,12.05
2022-11-25T19:46:46.302Z,12.58
2022-11-25T19:47:56.067Z,11.82
2022-11-25T19:49:19.051Z,11.38
2022-11-25T19:50:41.332Z,12.03
2022-11-25T19:52:02.933Z,12.04
2022-11-25T19:53:30.203Z,12.38
2022-11-25T19:54:48.790Z,11.38
2022-11-25T19:56:14.363Z,11.95
2022-11-25T19:57:35.894Z,11.72
2022-11-25T19:58:57.623Z,11.53
2022-11-25T20:00:19.956Z,12.42
2022-11-25T20:01:42.731Z,11.49
2022-11-25T20:03:03.877Z,12.25
2022-11-25T20:04:32.826Z,12.19
2022-11-25T20:05:54.008Z,11.78
2022-11-25T20:07:17.567Z,11.49
2022-11-25T20:08:39.064Z,11.71
2022-11-25T20:11:16.812Z,11.74
2022-11-25T20:12:38.517Z,12.09
2022-11-25T20:13:59.771Z,11.47
2022-11-25T20:15:21.499Z,11.48
2022-11-25T20:16:42.988Z,10.94
2022-11-25T20:18:04.429Z,12.02
2022-11-25T20:19:25.766Z,12.03
2022-11-25T20:20:49.811Z,10.97
2022-11-25T20:22:14.624Z,12.01
2022-11-25T20:23:43.399Z,11.19
2022-11-25T20:25:09.019Z,10.89
2022-11-25T20:26:32.919Z,11.29